Time;durP1;ratioP1;P1;durP2;ratioP2;P2;SDS_P1;SDS_P2;PMS_P1;PMS_P2;Temp;Humidity;BMP_temperature;BMP_pressure;BME280_temperature;BME280_humidity;BME280_pressure;Samples;Min_cycle;Max_cycle;Signal;HPM_P1;HPM_P2
2022/06/06 00:01:53;;;;;;;5.60;4.20;;;;;;;18.26;49.45;100681.29;106002;1276;22555;-75
2022/06/06 00:04:22;;;;;;;5.90;4.10;;;;;;;18.22;49.47;100680.16;106066;1276;22578;-74
2022/06/06 00:06:51;;;;;;;7.70;4.40;;;;;;;18.21;49.56;100683.60;105986;1276;25776;-75
2022/06/06 00:09:18;;;;;;;5.00;4.60;;;;;;;18.20;49.80;100680.43;105768;1276;24927;-79
2022/06/06 00:11:44;;;;;;;5.20;4.20;;;;;;;18.19;49.84;100679.73;105788;1276;26640;-75
2022/06/06 00:14:14;;;;;;;6.00;4.80;;;;;;;18.17;50.02;100680.36;105830;1277;24168;-77
2022/06/06 00:16:40;;;;;;;5.10;4.70;;;;;;;18.14;50.14;100677.23;105974;1276;25552;-76
2022/06/06 00:19:08;;;;;;;5.40;4.40;;;;;;;18.13;50.08;100672.30;106222;1270;24338;-81
2022/06/06 00:21:34;;;;;;;9.30;4.70;;;;;;;18.11;50.12;100669.66;106473;1270;23968;-76
2022/06/06 00:24:01;;;;;;;5.00;4.60;;;;;;;18.07;50.41;100666.95;106255;1270;22697;-77
2022/06/06 00:26:29;;;;;;;6.60;4.30;;;;;;;18.05;50.60;100660.61;106379;1270;24202;-77
2022/06/06 00:28:56;;;;;;;6.30;4.70;;;;;;;18.02;50.80;100656.80;106326;1270;22603;-75
2022/06/06 00:37:02;;;;;;;8.00;5.40;;;;;;;17.89;51.23;100642.65;106325;1270;25382;-77
2022/06/06 00:39:28;;;;;;;8.20;5.30;;;;;;;17.87;51.32;100639.14;106177;1271;25564;-75
2022/06/06 00:41:56;;;;;;;7.00;5.30;;;;;;;17.86;51.35;100638.84;106362;1270;26501;-77
2022/06/06 00:44:24;;;;;;;7.00;6.30;;;;;;;17.83;51.74;100638.39;106259;1270;22646;-76
2022/06/06 00:47:15;;;;;;;7.00;5.70;;;;;;;17.80;51.93;100640.27;106405;1270;22665;-75
2022/06/06 00:49:52;;;;;;;6.60;5.70;;;;;;;17.77;52.28;100640.92;106244;1270;22837;-71
2022/06/06 00:52:24;;;;;;;10.20;6.00;;;;;;;17.74;52.54;100636.94;106152;1270;22610;-74
2022/06/06 00:54:56;;;;;;;7.30;5.60;;;;;;;17.73;52.81;100636.27;106482;1270;25530;-75
2022/06/06 00:57:29;;;;;;;6.10;5.50;;;;;;;17.70;52.98;100636.89;106002;1273;24210;-72
2022/06/06 00:59:56;;;;;;;7.20;6.40;;;;;;;17.67;53.34;100631.48;106083;1273;22547;-78
2022/06/06 01:02:22;;;;;;;7.10;6.20;;;;;;;17.64;53.44;100627.30;105991;1273;24219;-77
2022/06/06 01:04:49;;;;;;;6.50;5.80;;;;;;;17.60;53.70;100621.73;106162;1273;24315;-76
2022/06/06 01:07:16;;;;;;;8.40;6.20;;;;;;;17.57;53.77;100625.20;105954;1273;22542;-76
2022/06/06 01:09:43;;;;;;;6.70;6.00;;;;;;;17.55;53.97;100620.84;105962;1273;23026;-77
2022/06/06 01:12:16;;;;;;;7.70;6.10;;;;;;;17.53;54.02;100622.52;105747;1273;23971;-75
2022/06/06 01:14:51;;;;;;;7.90;6.30;;;;;;;17.52;53.90;100621.15;106009;1273;24227;-76
2022/06/06 01:17:20;;;;;;;7.80;5.90;;;;;;;17.48;54.17;100619.50;106341;1270;26497;-75
2022/06/06 01:20:23;;;;;;;7.10;6.00;;;;;;;17.44;54.31;100614.45;106361;1270;22579;-73
2022/06/06 01:23:04;;;;;;;7.20;6.50;;;;;;;17.42;54.37;100612.39;106050;1270;25261;-72
2022/06/06 01:25:47;;;;;;;6.60;5.90;;;;;;;17.38;54.32;100610.36;106338;1269;22867;-75
2022/06/06 01:28:39;;;;;;;8.10;6.40;;;;;;;17.35;54.50;100611.92;106269;1270;23060;-76
2022/06/06 01:31:10;;;;;;;8.40;6.90;;;;;;;17.30;54.67;100603.91;106289;1270;22597;-76
2022/06/06 01:33:57;;;;;;;7.80;6.40;;;;;;;17.27;54.74;100597.59;106194;1270;22730;-77
2022/06/06 01:36:27;;;;;;;7.90;6.70;;;;;;;17.25;54.93;100596.58;106319;1270;22551;-77
2022/06/06 01:38:54;;;;;;;7.50;5.80;;;;;;;17.23;54.98;100601.80;106441;1270;22548;-76
2022/06/06 01:41:31;;;;;;;8.70;6.30;;;;;;;17.22;54.92;100598.45;106459;1270;25486;-76
2022/06/06 01:44:06;;;;;;;8.50;6.40;;;;;;;17.18;54.91;100601.23;106444;1270;25529;-76
2022/06/06 01:46:35;;;;;;;6.40;5.80;;;;;;;17.14;55.12;100601.73;106387;1270;25329;-78
2022/06/06 01:49:04;;;;;;;6.80;6.00;;;;;;;17.12;55.37;100601.11;106193;1270;25468;-73
2022/06/06 01:51:32;;;;;;;8.80;6.50;;;;;;;17.11;55.41;100610.40;106336;1270;23804;-71
2022/06/06 01:54:00;;;;;;;7.50;6.70;;;;;;;17.08;55.56;100612.43;106302;1270;23252;-74
2022/06/06 01:56:30;;;;;;;7.30;6.30;;;;;;;17.06;55.47;100609.98;106435;1270;22557;-76
2022/06/06 01:58:57;;;;;;;7.60;6.50;;;;;;;17.02;55.49;100610.11;105723;1274;432116;-73
2022/06/06 02:01:24;;;;;;;8.00;6.20;;;;;;;16.99;55.46;100599.18;106013;1274;25533;-75
2022/06/06 02:03:50;;;;;;;10.00;6.40;;;;;;;16.98;55.67;100597.08;106006;1274;26648;-74
2022/06/06 02:06:17;;;;;;;6.80;6.10;;;;;;;16.97;55.62;100595.14;105837;1274;25497;-72
2022/06/06 02:08:43;;;;;;;7.40;6.10;;;;;;;16.96;55.68;100588.04;105956;1274;22639;-75
2022/06/06 02:11:11;;;;;;;7.00;5.80;;;;;;;16.95;55.88;100585.59;105838;1277;24292;-71
2022/06/06 02:13:38;;;;;;;6.20;5.60;;;;;;;16.94;55.77;100575.13;105642;1278;25310;-74
2022/06/06 02:16:05;;;;;;;6.90;6.10;;;;;;;16.93;55.99;100577.31;105557;1278;22575;-75
2022/06/06 02:18:33;;;;;;;5.80;5.20;;;;;;;16.92;55.82;100575.94;105780;1277;24232;-77
2022/06/06 02:21:01;;;;;;;8.00;6.60;;;;;;;16.89;55.84;100577.07;105776;1278;25260;-71
2022/06/06 02:23:28;;;;;;;7.70;6.00;;;;;;;16.87;56.01;100571.27;105782;1273;23171;-75
2022/06/06 02:25:55;;;;;;;7.00;6.30;;;;;;;16.87;56.17;100567.20;106055;1273;25761;-75
2022/06/06 02:28:21;;;;;;;8.90;6.90;;;;;;;16.85;56.17;100564.03;105940;1273;25187;-75
2022/06/06 02:30:47;;;;;;;6.30;5.50;;;;;;;16.82;56.22;100562.54;106059;1274;24381;-72
2022/06/06 02:33:14;;;;;;;6.60;6.00;;;;;;;16.80;55.94;100561.88;106014;1273;26520;-77
2022/06/06 02:35:41;;;;;;;8.00;6.20;;;;;;;16.80;56.01;100565.80;106195;1270;22493;-73
2022/06/06 02:38:10;;;;;;;7.20;5.80;;;;;;;16.79;56.13;100565.30;106062;1276;22642;-74
2022/06/06 02:40:37;;;;;;;6.60;6.00;;;;;;;16.79;55.93;100564.26;105931;1276;22539;-76
2022/06/06 02:43:03;;;;;;;6.30;5.70;;;;;;;16.79;56.12;100568.00;105943;1276;25339;-75
2022/06/06 02:45:30;;;;;;;7.00;6.00;;;;;;;16.76;56.07;100565.04;105869;1276;25611;-72
2022/06/06 02:47:58;;;;;;;7.00;5.80;;;;;;;16.78;56.00;100568.71;105798;1276;26749;-75
2022/06/06 02:50:29;;;;;;;6.80;6.10;;;;;;;16.79;56.24;100567.27;105887;1276;24104;-75
2022/06/06 02:52:56;;;;;;;7.50;5.80;;;;;;;16.78;55.96;100562.83;105756;1276;24890;-75
2022/06/06 02:55:23;;;;;;;7.30;6.00;;;;;;;16.80;55.94;100562.80;105464;1279;22564;-76
2022/06/06 02:57:51;;;;;;;8.90;5.90;;;;;;;16.79;56.00;100565.48;105876;1276;23934;-86
2022/06/06 03:00:24;;;;;;;6.40;5.60;;;;;;;16.79;56.01;100566.91;106454;1276;26836;-75
2022/06/06 03:02:50;;;;;;;6.60;5.90;;;;;;;16.78;56.33;100572.98;106383;1276;25231;-74
2022/06/06 03:05:17;;;;;;;7.00;5.70;;;;;;;16.77;56.00;100574.45;106649;1276;22573;-75
2022/06/06 03:07:46;;;;;;;6.80;5.10;;;;;;;16.75;55.97;100577.88;106970;1276;22571;-75
2022/06/06 03:10:18;;;;;;;6.40;5.80;;;;;;;16.73;55.97;100587.56;106850;1276;22748;-75
2022/06/06 03:13:19;;;;;;;8.10;5.50;;;;;;;16.73;55.72;100591.84;106292;1273;24268;-76
2022/06/06 03:22:35;;;;;;;5.60;5.10;;;;;;;16.69;55.70;100601.16;106485;1270;24377;-74
2022/06/06 03:25:22;;;;;;;6.30;5.20;;;;;;;16.72;55.80;100604.12;106246;1273;22543;-77
2022/06/06 03:28:27;;;;;;;7.80;5.60;;;;;;;16.77;55.86;100608.24;106352;1270;25324;-85
2022/06/06 03:31:03;;;;;;;8.00;5.80;;;;;;;16.81;55.78;100608.27;106358;1270;22585;-74
2022/06/06 03:33:41;;;;;;;6.20;5.60;;;;;;;16.84;55.59;100609.23;106313;1270;25377;-73
2022/06/06 03:36:21;;;;;;;5.90;5.10;;;;;;;16.89;55.61;100609.10;106573;1270;24165;-81
2022/06/06 03:39:06;;;;;;;5.40;4.90;;;;;;;16.94;55.56;100608.95;106395;1270;22661;-78
2022/06/06 03:41:37;;;;;;;6.20;5.60;;;;;;;16.97;55.46;100615.41;106507;1270;24128;-76
2022/06/06 03:44:28;;;;;;;7.00;5.40;;;;;;;16.99;55.61;100614.46;106512;1270;22552;-79
2022/06/06 03:47:24;;;;;;;6.40;5.60;;;;;;;17.04;55.56;100616.61;106378;1270;23594;-75
2022/06/06 03:50:15;;;;;;;7.20;5.50;;;;;;;17.11;55.45;100618.94;106497;1270;25635;-74
2022/06/06 03:52:56;;;;;;;7.70;5.10;;;;;;;17.16;55.29;100620.89;106394;1270;25383;-76
2022/06/06 03:55:29;;;;;;;6.90;5.40;;;;;;;17.21;55.36;100626.77;106595;1271;25213;-81
2022/06/06 03:57:57;;;;;;;6.40;5.40;;;;;;;17.28;55.37;100628.70;106538;1270;24251;-81
2022/06/06 04:00:24;;;;;;;7.00;5.30;;;;;;;17.33;55.30;100626.77;106476;1270;22676;-80
2022/06/06 04:02:52;;;;;;;6.90;5.10;;;;;;;17.36;55.14;100623.10;106263;1270;24337;-79
2022/06/06 04:05:22;;;;;;;6.90;5.90;;;;;;;17.38;55.16;100622.32;106362;1270;22556;-79
2022/06/06 04:07:49;;;;;;;6.40;5.70;;;;;;;17.42;55.14;100619.88;106316;1270;25369;-81
2022/06/06 04:10:16;;;;;;;6.30;5.70;;;;;;;17.46;55.14;100623.29;106401;1271;25490;-79
2022/06/06 04:13:04;;;;;;;6.20;5.60;;;;;;;17.49;55.17;100626.58;106362;1270;24170;-78
2022/06/06 04:16:00;;;;;;;7.20;5.50;;;;;;;17.53;55.17;100626.63;106468;1270;23240;-82
2022/06/06 04:18:41;;;;;;;7.40;5.50;;;;;;;17.59;55.10;100628.73;106653;1270;22636;-83
2022/06/06 04:21:46;;;;;;;8.60;5.60;;;;;;;17.66;54.97;100632.59;106559;1270;22925;-80
2022/06/06 04:24:56;;;;;;;9.90;5.60;;;;;;;17.71;55.07;100633.65;106543;1270;22625;-83
2022/06/06 04:27:29;;;;;;;6.30;5.40;;;;;;;17.80;54.88;100633.32;106695;1270;23992;-86
2022/06/06 04:30:20;;;;;;;6.40;5.70;;;;;;;17.87;54.77;100630.09;106870;1270;25620;-87
2022/06/06 04:32:57;;;;;;;6.10;5.40;;;;;;;17.91;54.79;100622.95;106948;1270;22797;-89
2022/06/06 04:35:37;;;;;;;9.20;5.70;;;;;;;17.98;54.89;100623.79;106467;1276;22506;-84
2022/06/06 04:38:28;;;;;;;6.80;5.40;;;;;;;18.04;55.02;100622.50;105944;1276;25516;-85
2022/06/06 04:41:04;;;;;;;6.80;5.90;;;;;;;18.10;54.80;100619.44;106134;1276;24265;-84
2022/06/06 04:43:39;;;;;;;;;;;;;;;18.17;54.60;100622.44;106172;1276;22542;-84
2022/06/06 04:46:27;;;;;;;10.60;5.90;;;;;;;18.21;54.65;100624.23;106213;1276;25578;-86
2022/06/06 04:48:55;;;;;;;6.60;6.00;;;;;;;18.26;54.68;100628.50;106864;1274;25384;-84
2022/06/06 04:51:23;;;;;;;7.40;6.00;;;;;;;18.30;54.67;100626.59;106484;1276;25557;-86
2022/06/06 04:53:53;;;;;;;7.60;5.70;;;;;;;18.33;54.60;100627.17;106167;1276;23560;-85
2022/06/06 04:56:20;;;;;;;7.70;6.00;;;;;;;18.37;54.58;100627.91;106292;1275;22572;-86
2022/06/06 04:58:50;;;;;;;8.30;5.50;;;;;;;18.45;54.78;100631.91;107643;1277;22860;-84
2022/06/06 05:01:18;;;;;;;6.40;5.50;;;;;;;18.51;54.84;100633.09;108813;1274;22572;-88
2022/06/06 05:03:45;;;;;;;7.00;5.40;;;;;;;18.58;54.71;100631.77;108918;1274;22666;-87
2022/06/06 05:06:43;;;;;;;5.80;5.10;;;;;;;18.64;54.52;100632.98;107928;1274;24364;-88
2022/06/06 05:09:32;;;;;;;7.60;5.50;;;;;;;18.73;54.32;100634.58;107920;1274;22634;-87
2022/06/06 05:12:09;;;;;;;5.50;4.80;;;;;;;18.78;54.19;100630.97;107693;1274;22552;-88
2022/06/06 05:14:54;;;;;;;6.80;5.50;;;;;;;18.85;54.10;100626.27;107708;1274;22722;-87
2022/06/06 05:18:04;;;;;;;6.10;5.60;;;;;;;18.91;54.09;100625.48;108309;1270;22633;-86
2022/06/06 05:20:54;;;;;;;7.60;5.80;;;;;;;18.98;54.09;100626.83;108805;1270;22583;-86
2022/06/06 05:23:40;;;;;;;9.20;7.40;;;;;;;19.05;53.97;100630.43;108850;1276;22658;-87
2022/06/06 05:30:33;;;;;;;18.10;12.70;;;;;;;19.13;52.86;100642.84;108654;1278;22735;-85
2022/06/06 05:33:17;;;;;;;15.80;11.00;;;;;;;19.16;52.55;100640.56;108548;1276;22612;-87
2022/06/06 05:35:52;;;;;;;12.60;9.10;;;;;;;19.21;52.42;100642.52;109011;1276;22582;-89
2022/06/06 05:41:15;;;;;;;7.80;7.00;;;;;;;19.35;51.95;100646.95;108684;1274;23287;-81
2022/06/06 05:43:56;;;;;;;7.40;6.20;;;;;;;19.40;51.71;100649.23;109709;1274;22603;-92
2022/06/06 05:46:35;;;;;;;9.40;6.40;;;;;;;19.44;51.54;100649.61;109536;1274;22891;-93
2022/06/06 05:49:20;;;;;;;8.60;5.80;;;;;;;19.48;51.46;100645.31;109219;1274;22517;-86
2022/06/06 05:51:53;;;;;;;8.00;5.70;;;;;;;19.54;50.81;100642.93;107080;1275;22545;-79
2022/06/06 05:54:46;;;;;;;5.80;4.90;;;;;;;19.60;50.83;100649.63;106441;1274;22697;-81
2022/06/06 05:57:43;;;;;;;5.00;4.50;;;;;;;19.63;50.14;100642.00;106137;1274;22799;-83
2022/06/06 06:00:18;;;;;;;6.10;4.50;;;;;;;19.65;50.17;100642.46;106275;1275;23981;-80
2022/06/06 06:02:59;;;;;;;7.00;4.50;;;;;;;19.69;50.07;100640.16;106334;1275;22554;-80
2022/06/06 06:06:12;;;;;;;7.20;4.60;;;;;;;19.74;49.88;100636.72;106378;1275;26516;-83
2022/06/06 06:08:41;;;;;;;9.20;4.80;;;;;;;19.79;50.00;100631.67;106910;1275;25395;-80
2022/06/06 06:11:32;;;;;;;6.80;4.60;;;;;;;19.86;50.06;100629.25;107777;1274;22681;-82
2022/06/06 06:14:11;;;;;;;7.40;4.30;;;;;;;19.95;49.97;100633.85;107877;1274;22601;-81
2022/06/06 06:16:50;;;;;;;4.80;4.40;;;;;;;20.01;49.53;100627.84;108677;1274;22549;-82
2022/06/06 06:19:22;;;;;;;6.90;4.40;;;;;;;20.08;49.43;100623.27;109107;1274;22553;-82
2022/06/06 06:21:55;;;;;;;4.80;4.40;;;;;;;20.17;49.19;100614.82;106907;1275;22547;-84
2022/06/06 06:24:32;;;;;;;4.80;4.10;;;;;;;20.23;48.74;100613.84;106372;1274;25428;-81
2022/06/06 06:27:01;;;;;;;6.00;4.10;;;;;;;20.26;48.58;100603.16;106184;1273;22550;-80
2022/06/06 06:29:27;;;;;;;5.80;3.90;;;;;;;20.36;48.84;100610.60;106379;1274;22558;-82
2022/06/06 06:32:18;;;;;;;6.40;4.20;;;;;;;20.40;48.44;100612.35;105730;1281;26655;-81
2022/06/06 06:35:02;;;;;;;6.80;5.10;;;;;;;20.44;48.46;100614.88;106048;1281;22556;-78
2022/06/06 06:37:37;;;;;;;4.90;4.50;;;;;;;20.48;48.23;100619.31;105935;1281;25868;-80
2022/06/06 06:40:53;;;;;;;8.30;4.20;;;;;;;20.50;48.17;100621.00;105914;1281;24220;-78
2022/06/06 06:43:45;;;;;;;6.40;4.70;;;;;;;20.56;48.59;100618.44;105648;1287;23077;-80
2022/06/06 06:46:26;;;;;;;5.30;4.80;;;;;;;20.62;48.84;100612.77;106140;1281;23937;-81
2022/06/06 06:49:10;;;;;;;5.20;4.50;;;;;;;20.66;48.90;100609.00;106361;1284;22634;-93
2022/06/06 06:51:36;;;;;;;5.80;3.90;;;;;;;20.70;48.94;100609.52;106358;1281;22812;-81
2022/06/06 06:54:22;;;;;;;4.50;3.70;;;;;;;20.76;48.96;100607.24;107425;1279;23053;-83
2022/06/06 06:57:08;;;;;;;4.80;3.80;;;;;;;20.81;48.27;100608.44;107434;1281;22648;-76
2022/06/06 06:59:40;;;;;;;4.30;3.80;;;;;;;20.87;47.95;100617.86;107554;1281;24236;-80
2022/06/06 07:08:48;;;;;;;4.00;3.50;;;;;;;21.01;46.96;100619.34;107281;1275;22565;-89
2022/06/06 07:11:27;;;;;;;5.10;3.40;;;;;;;21.07;46.64;100615.98;108507;1275;25276;-84
2022/06/06 07:13:54;;;;;;;7.30;3.40;;;;;;;21.11;46.66;100610.80;107890;1274;23138;-77
2022/06/06 07:16:30;;;;;;;4.90;3.90;;;;;;;21.18;46.28;100611.16;108837;1281;22615;-88
2022/06/06 07:19:08;;;;;;;3.60;3.30;;;;;;;21.20;46.10;100609.10;108462;1281;23176;-89
2022/06/06 07:21:37;;;;;;;4.10;2.90;;;;;;;21.25;46.03;100608.86;108883;1281;23934;-90
2022/06/06 07:24:10;;;;;;;3.50;3.00;;;;;;;21.32;45.99;100611.01;108547;1285;22866;-90
2022/06/06 07:26:41;;;;;;;5.10;3.20;;;;;;;21.40;45.75;100608.80;108473;1285;22612;-90
2022/06/06 07:29:11;;;;;;;4.70;3.30;;;;;;;21.46;45.40;100606.56;107580;1285;22597;-86
2022/06/06 07:32:07;;;;;;;3.50;3.20;;;;;;;21.52;45.66;100601.38;106905;1287;22617;-85
2022/06/06 07:34:58;;;;;;;6.00;3.10;;;;;;;21.64;45.81;100605.41;106815;1281;22641;-83
2022/06/06 07:37:33;;;;;;;6.30;3.30;;;;;;;21.75;45.83;100602.70;106558;1280;24451;-86
2022/06/06 07:40:26;;;;;;;6.60;3.90;;;;;;;21.85;45.88;100603.85;107564;1280;24291;-84
2022/06/06 07:43:44;;;;;;;4.40;3.60;;;;;;;21.95;45.32;100595.25;107705;1275;22699;-85
2022/06/06 07:46:43;;;;;;;4.50;3.10;;;;;;;22.07;45.31;100594.44;106980;1275;22630;-85
2022/06/06 07:49:35;;;;;;;4.40;2.90;;;;;;;22.20;44.98;100596.23;107027;1275;24252;-86
2022/06/06 07:52:24;;;;;;;3.70;3.00;;;;;;;22.30;44.63;100603.06;106211;1281;22864;-85
2022/06/06 07:55:01;;;;;;;5.10;2.70;;;;;;;22.35;43.56;100596.34;105735;1287;22652;-85
2022/06/06 07:57:37;;;;;;;6.30;2.90;;;;;;;22.41;43.88;100590.98;105832;1287;22865;-85
2022/06/06 08:00:06;;;;;;;4.90;2.40;;;;;;;22.48;43.54;100588.39;105577;1287;22579;-84
2022/06/06 08:02:48;;;;;;;6.90;2.40;;;;;;;22.57;43.21;100591.34;105587;1287;22560;-86
2022/06/06 08:05:14;;;;;;;2.60;2.40;;;;;;;22.65;42.16;100587.35;105316;1293;22563;-87
2022/06/06 08:08:04;;;;;;;2.50;2.30;;;;;;;22.69;41.94;100581.73;106759;1291;24148;-90
2022/06/06 08:10:43;;;;;;;2.90;2.40;;;;;;;22.80;41.89;100574.98;106929;1287;22590;-89
2022/06/06 08:13:50;;;;;;;4.20;2.20;;;;;;;22.92;41.72;100578.82;105057;1291;25282;-86
2022/06/06 08:16:19;;;;;;;2.70;2.30;;;;;;;23.09;41.53;100575.64;104323;1297;24263;-84
2022/06/06 08:19:10;;;;;;;2.90;2.40;;;;;;;23.23;40.99;100584.52;104214;1294;25369;-85
2022/06/06 08:21:40;;;;;;;3.90;2.10;;;;;;;23.36;40.11;100578.02;104215;1294;22512;-85
2022/06/06 08:24:27;;;;;;;2.50;2.00;;;;;;;23.46;39.85;100576.91;105885;1290;23115;-92
2022/06/06 08:27:18;;;;;;;3.30;1.90;;;;;;;23.62;39.20;100576.67;106294;1293;22616;-89
2022/06/06 08:29:46;;;;;;;2.20;2.00;;;;;;;23.74;39.11;100568.59;106649;1291;22665;-91
2022/06/06 08:32:13;;;;;;;3.60;2.20;;;;;;;23.89;39.14;100566.39;106829;1279;25387;-91
2022/06/06 08:34:41;;;;;;;2.80;2.30;;;;;;;24.02;38.69;100566.31;107348;1276;22496;-93
2022/06/06 08:37:36;;;;;;;3.50;2.00;;;;;;;24.16;39.02;100568.69;107636;1275;22588;-94
2022/06/06 08:40:20;;;;;;;2.50;2.00;;;;;;;24.28;38.32;100566.70;107730;1274;22600;-92
2022/06/06 08:42:59;;;;;;;2.90;2.30;;;;;;;24.42;37.91;100567.61;107923;1274;26648;-93
2022/06/06 08:45:47;;;;;;;3.10;1.90;;;;;;;24.57;37.82;100560.34;108047;1275;22532;-94
2022/06/06 08:48:52;;;;;;;2.00;1.80;;;;;;;24.72;36.97;100561.50;108176;1273;23127;-92
2022/06/06 08:51:50;;;;;;;3.40;2.20;;;;;;;24.85;36.44;100556.90;107305;1281;22557;-92
2022/06/06 08:54:44;;;;;;;1.90;1.70;;;;;;;24.99;35.72;100565.73;107222;1281;22561;-91
2022/06/06 08:57:39;;;;;;;4.40;2.00;;;;;;;25.04;35.38;100561.46;107206;1281;22553;-93
2022/06/06 09:00:34;;;;;;;3.80;2.00;;;;;;;25.04;35.11;100561.44;107719;1279;22569;-85
2022/06/06 09:03:19;;;;;;;1.70;1.60;;;;;;;25.14;35.04;100564.36;105863;1281;25343;-85
2022/06/06 09:06:14;;;;;;;5.20;1.60;;;;;;;25.25;34.70;100552.47;105939;1281;22536;-85
2022/06/06 09:08:51;;;;;;;2.20;1.70;;;;;;;25.33;33.65;100562.16;106585;1277;25166;-89
2022/06/06 09:11:27;;;;;;;1.70;1.60;;;;;;;25.31;33.52;100559.96;107271;1274;22577;-91
2022/06/06 09:14:01;;;;;;;3.40;2.30;;;;;;;25.34;33.54;100555.27;106851;1274;22566;-87
2022/06/06 09:17:04;;;;;;;1.70;1.60;;;;;;;25.37;33.04;100546.97;106863;1279;25684;-88
2022/06/06 09:20:00;;;;;;;2.00;1.60;;;;;;;25.36;33.26;100548.80;107241;1279;22565;-88
2022/06/06 09:22:43;;;;;;;3.90;1.90;;;;;;;25.35;33.40;100541.83;108591;1277;25448;-88
2022/06/06 09:25:28;;;;;;;2.00;1.70;;;;;;;25.44;33.82;100549.55;109219;1279;22568;-92
2022/06/06 09:27:59;;;;;;;2.00;1.90;;;;;;;25.41;33.52;100544.55;109149;1278;22587;-92
2022/06/06 09:30:56;;;;;;;3.80;2.00;;;;;;;25.39;33.05;100545.20;109268;1277;25248;-84
2022/06/06 09:33:46;;;;;;;3.70;1.70;;;;;;;25.31;33.71;100532.96;108281;1278;26997;-84
2022/06/06 09:36:43;;;;;;;2.20;2.00;;;;;;;25.40;33.88;100539.19;107285;1275;22571;-86
2022/06/06 09:39:40;;;;;;;3.90;2.20;;;;;;;25.42;33.85;100537.80;106908;1275;22954;-86
2022/06/06 09:42:40;;;;;;;2.10;1.60;;;;;;;25.36;33.56;100530.41;109291;1275;22560;-86
2022/06/06 09:45:29;;;;;;;1.80;1.70;;;;;;;25.37;34.07;100530.39;108731;1275;23208;-86
2022/06/06 09:48:27;;;;;;;2.10;1.90;;;;;;;25.48;34.52;100535.05;106835;1275;22543;-87
2022/06/06 09:51:14;;;;;;;2.30;2.00;;;;;;;25.59;34.08;100528.34;108302;1275;22709;-83
2022/06/06 10:00:17;;;;;;;2.40;1.80;;;;;;;25.76;33.76;100519.02;107791;1274;22553;-86
2022/06/06 10:03:05;;;;;;;4.90;2.20;;;;;;;25.94;33.54;100520.66;106337;1275;22564;-84
2022/06/06 10:05:37;;;;;;;2.20;2.10;;;;;;;25.87;32.45;100517.39;106601;1275;23357;-84
2022/06/06 10:08:29;;;;;;;3.70;2.00;;;;;;;25.85;32.54;100517.00;106046;1281;25292;-83
2022/06/06 10:11:28;;;;;;;2.40;2.00;;;;;;;25.91;33.02;100511.52;106188;1281;22702;-82
2022/06/06 10:14:21;;;;;;;6.40;2.00;;;;;;;26.09;33.47;100517.27;106275;1281;22551;-84
2022/06/06 10:17:12;;;;;;;3.10;2.40;;;;;;;26.38;33.50;100508.64;106176;1281;25521;-84
2022/06/06 10:19:55;;;;;;;2.50;2.30;;;;;;;26.66;33.89;100499.92;106027;1281;25266;-87
2022/06/06 10:22:24;;;;;;;3.90;2.20;;;;;;;26.90;33.22;100501.00;106001;1281;22600;-85
2022/06/06 10:25:15;;;;;;;4.10;2.30;;;;;;;27.04;32.65;100495.41;105926;1281;22566;-83
2022/06/06 10:28:10;;;;;;;1.90;1.70;;;;;;;27.23;32.39;100491.48;106288;1275;22555;-84
2022/06/06 10:31:12;;;;;;;2.90;1.90;;;;;;;27.24;31.28;100491.02;106151;1274;25331;-84
2022/06/06 10:33:55;;;;;;;2.30;2.00;;;;;;;27.29;31.71;100491.54;106227;1274;24256;-82
2022/06/06 10:36:33;;;;;;;2.30;1.90;;;;;;;27.32;31.24;100481.02;106369;1274;22964;-84
2022/06/06 10:39:37;;;;;;;2.30;2.10;;;;;;;27.44;31.64;100480.63;106561;1274;22545;-83
2022/06/06 10:42:18;;;;;;;5.20;2.20;;;;;;;27.59;31.61;100474.57;107107;1275;23958;-84
2022/06/06 10:45:25;;;;;;;2.50;2.00;;;;;;;27.64;31.30;100473.05;106538;1277;23355;-83
2022/06/06 10:48:05;;;;;;;2.70;1.90;;;;;;;27.76;31.19;100470.55;105920;1277;22720;-86
2022/06/06 10:54:40;;;;;;;2.40;2.20;;;;;;;28.01;30.54;100466.17;105958;1281;22840;-83
2022/06/06 10:57:29;;;;;;;2.20;2.00;;;;;;;28.08;29.52;100462.38;105808;1281;22842;-83
2022/06/06 11:00:19;;;;;;;3.70;2.80;;;;;;;28.11;29.77;100456.12;105869;1280;25287;-80
2022/06/06 11:03:07;;;;;;;1.80;1.60;;;;;;;28.31;29.53;100454.50;105857;1281;22582;-81
2022/06/06 11:05:53;;;;;;;2.50;2.10;;;;;;;28.41;29.19;100452.27;105784;1281;22508;-79
2022/06/06 11:08:39;;;;;;;3.60;2.00;;;;;;;28.43;29.09;100447.05;105796;1281;22547;-80
2022/06/06 11:11:39;;;;;;;2.70;2.10;;;;;;;28.55;29.49;100441.66;105789;1281;22802;-79
2022/06/06 11:14:08;;;;;;;3.10;2.20;;;;;;;28.84;29.43;100437.42;106247;1276;23431;-81
2022/06/06 11:16:59;;;;;;;2.80;2.50;;;;;;;28.93;29.30;100439.88;106059;1274;22893;-81
2022/06/06 11:19:35;;;;;;;2.70;2.50;;;;;;;28.82;28.93;100436.31;105947;1275;23329;-79
2022/06/06 11:22:23;;;;;;;2.70;2.40;;;;;;;28.83;29.88;100436.40;106197;1274;25318;-79
2022/06/06 11:25:02;;;;;;;2.60;2.40;;;;;;;29.07;29.87;100436.15;107555;1274;25416;-80
2022/06/06 11:27:28;;;;;;;3.60;2.40;;;;;;;29.11;29.57;100422.11;106091;1274;24229;-78
2022/06/06 11:30:23;;;;;;;3.00;2.60;;;;;;;29.20;29.89;100419.84;106034;1274;26645;-79
2022/06/06 11:33:08;;;;;;;2.60;2.40;;;;;;;29.34;29.86;100419.42;106165;1275;24225;-78
2022/06/06 11:35:56;;;;;;;3.00;2.20;;;;;;;29.36;29.62;100422.06;106330;1274;23097;-80
2022/06/06 11:38:34;;;;;;;2.60;2.40;;;;;;;29.48;29.73;100422.29;106296;1274;22503;-77
2022/06/06 11:41:29;;;;;;;2.90;2.50;;;;;;;29.54;29.30;100429.38;106521;1275;25331;-79
2022/06/06 11:44:14;;;;;;;3.70;2.60;;;;;;;29.54;29.39;100427.59;106453;1274;22599;-78
2022/06/06 11:47:12;;;;;;;2.80;2.30;;;;;;;29.43;29.09;100414.62;106417;1274;25341;-81
2022/06/06 11:49:45;;;;;;;2.30;2.10;;;;;;;29.40;29.55;100415.05;106421;1274;25451;-78
2022/06/06 11:52:33;;;;;;;2.60;2.20;;;;;;;29.62;29.50;100416.94;106388;1274;26640;-81
2022/06/06 11:55:20;;;;;;;4.00;2.30;;;;;;;29.80;29.38;100411.85;106170;1274;25347;-82
2022/06/06 11:57:57;;;;;;;2.30;2.10;;;;;;;30.09;29.53;100414.40;106174;1278;22549;-81
2022/06/06 12:00:53;;;;;;;2.50;2.30;;;;;;;30.29;29.00;100415.67;106085;1274;26691;-80
2022/06/06 12:04:02;;;;;;;2.40;2.20;;;;;;;30.22;29.08;100409.40;105841;1277;22599;-79
2022/06/06 12:06:52;;;;;;;2.90;2.50;;;;;;;30.35;29.26;100408.03;105751;1284;24296;-81
2022/06/06 12:09:35;;;;;;;2.50;2.30;;;;;;;30.44;29.10;100411.24;105640;1284;24120;-79
2022/06/06 12:12:28;;;;;;;4.00;2.50;;;;;;;30.53;29.31;100411.45;105577;1284;22571;-79
2022/06/06 12:15:19;;;;;;;2.90;2.20;;;;;;;30.67;28.95;100403.06;106013;1284;25588;-82
2022/06/06 12:18:06;;;;;;;4.40;2.60;;;;;;;30.86;28.84;100393.73;105862;1284;22729;-80
2022/06/06 12:20:38;;;;;;;2.80;2.10;;;;;;;30.86;28.76;100398.59;105778;1284;25425;-80
2022/06/06 12:23:16;;;;;;;2.50;2.30;;;;;;;31.02;29.13;100399.80;105230;1288;25301;-79
2022/06/06 12:25:56;;;;;;;2.00;1.90;;;;;;;31.24;28.85;100402.61;106216;1284;22807;-80
2022/06/06 12:28:53;;;;;;;2.20;2.10;;;;;;;31.16;28.09;100396.45;106904;1281;22573;-78
2022/06/06 12:31:44;;;;;;;2.10;1.90;;;;;;;30.74;28.07;100397.33;107244;1279;22526;-79
2022/06/06 12:34:24;;;;;;;2.20;2.10;;;;;;;30.21;28.31;100402.21;107714;1279;22754;-79
2022/06/06 12:36:56;;;;;;;2.90;1.90;;;;;;;30.07;28.60;100396.55;107834;1281;22557;-79
2022/06/06 12:39:25;;;;;;;3.40;2.30;;;;;;;30.23;29.13;100389.14;107393;1281;24087;-78
2022/06/06 12:42:29;;;;;;;2.30;1.70;;;;;;;30.49;28.65;100384.59;106484;1276;22738;-80
2022/06/06 12:45:47;;;;;;;5.80;2.20;;;;;;;30.75;28.63;100382.88;107151;1281;25290;-82
2022/06/06 12:48:50;;;;;;;3.60;2.10;;;;;;;30.68;28.34;100384.23;105704;1281;25944;-80
2022/06/06 12:51:34;;;;;;;2.20;2.10;;;;;;;30.74;28.33;100378.58;105940;1281;22599;-84
2022/06/06 12:54:18;;;;;;;1.90;1.80;;;;;;;30.51;28.31;100375.80;105856;1281;25426;-78